sensor_id;sensor_type;location;lat;lon;timestamp;temperature;humidity
3628;DHT22;1830;49.000;12.074;2023-10-09T00:00:13;12.60;99.90
3628;DHT22;1830;49.000;12.074;2023-10-09T00:02:57;12.60;99.90
3628;DHT22;1830;49.000;12.074;2023-10-09T00:05:27;12.60;99.90
3628;DHT22;1830;49.000;12.074;2023-10-09T00:08:04;12.60;99.90
3628;DHT22;1830;49.000;12.074;2023-10-09T00:10:34;12.60;99.90
3628;DHT22;1830;49.000;12.074;2023-10-09T00:13:11;12.50;99.90
3628;DHT22;1830;49.000;12.074;2023-10-09T00:15:37;12.50;99.90
3628;DHT22;1830;49.000;12.074;2023-10-09T00:18:04;12.50;99.90
3628;DHT22;1830;49.000;12.074;2023-10-09T00:20:38;12.50;99.90
3628;DHT22;1830;49.000;12.074;2023-10-09T00:23:08;12.40;99.90
3628;DHT22;1830;49.000;12.074;2023-10-09T00:25:48;12.40;99.90
3628;DHT22;1830;49.000;12.074;2023-10-09T00:28:34;12.40;99.90
3628;DHT22;1830;49.000;12.074;2023-10-09T00:31:03;12.40;99.90
3628;DHT22;1830;49.000;12.074;2023-10-09T00:33:33;12.40;99.90
3628;DHT22;1830;49.000;12.074;2023-10-09T00:36:03;12.40;99.90
3628;DHT22;1830;49.000;12.074;2023-10-09T00:38:35;12.40;99.90
3628;DHT22;1830;49.000;12.074;2023-10-09T00:41:04;12.40;99.90
3628;DHT22;1830;49.000;12.074;2023-10-09T00:43:37;12.40;99.90
3628;DHT22;1830;49.000;12.074;2023-10-09T00:46:08;12.40;99.90
3628;DHT22;1830;49.000;12.074;2023-10-09T00:48:37;12.30;99.90
3628;DHT22;1830;49.000;12.074;2023-10-09T00:51:07;12.40;99.90
3628;DHT22;1830;49.000;12.074;2023-10-09T00:53:44;12.40;99.90
3628;DHT22;1830;49.000;12.074;2023-10-09T00:56:14;12.40;99.90
3628;DHT22;1830;49.000;12.074;2023-10-09T00:58:48;12.30;99.90
3628;DHT22;1830;49.000;12.074;2023-10-09T01:01:21;12.40;99.90
3628;DHT22;1830;49.000;12.074;2023-10-09T01:03:53;12.40;99.90
3628;DHT22;1830;49.000;12.074;2023-10-09T01:06:23;12.30;99.90
3628;DHT22;1830;49.000;12.074;2023-10-09T01:08:56;12.30;99.90
3628;DHT22;1830;49.000;12.074;2023-10-09T01:11:35;12.30;99.90
3628;DHT22;1830;49.000;12.074;2023-10-09T01:14:12;12.30;99.90
3628;DHT22;1830;49.000;12.074;2023-10-09T01:16:39;12.40;99.90
3628;DHT22;1830;49.000;12.074;2023-10-09T01:19:08;12.40;99.90
3628;DHT22;1830;49.000;12.074;2023-10-09T01:21:47;12.40;99.90
3628;DHT22;1830;49.000;12.074;2023-10-09T01:24:17;12.40;99.90
3628;DHT22;1830;49.000;12.074;2023-10-09T01:26:46;12.50;99.90
3628;DHT22;1830;49.000;12.074;2023-10-09T01:29:16;12.50;99.90
3628;DHT22;1830;49.000;12.074;2023-10-09T01:31:45;12.60;99.90
3628;DHT22;1830;49.000;12.074;2023-10-09T01:34:18;12.50;99.90
3628;DHT22;1830;49.000;12.074;2023-10-09T01:36:50;12.50;99.90
3628;DHT22;1830;49.000;12.074;2023-10-09T01:39:22;12.40;99.90
3628;DHT22;1830;49.000;12.074;2023-10-09T01:41:52;12.50;99.90
3628;DHT22;1830;49.000;12.074;2023-10-09T01:44:25;12.50;99.90
3628;DHT22;1830;49.000;12.074;2023-10-09T01:46:55;12.50;99.90
3628;DHT22;1830;49.000;12.074;2023-10-09T01:49:23;12.50;99.90
3628;DHT22;1830;49.000;12.074;2023-10-09T01:51:57;12.60;99.90
3628;DHT22;1830;49.000;12.074;2023-10-09T01:54:30;12.60;99.90
3628;DHT22;1830;49.000;12.074;2023-10-09T01:57:07;12.60;99.90
3628;DHT22;1830;49.000;12.074;2023-10-09T01:59:38;12.60;99.90
3628;DHT22;1830;49.000;12.074;2023-10-09T02:02:09;12.60;99.90
3628;DHT22;1830;49.000;12.074;2023-10-09T02:04:50;12.60;99.90
3628;DHT22;1830;49.000;12.074;2023-10-09T02:07:17;12.60;99.90
3628;DHT22;1830;49.000;12.074;2023-10-09T02:09:49;12.60;99.90
3628;DHT22;1830;49.000;12.074;2023-10-09T02:12:16;12.60;99.90
3628;DHT22;1830;49.000;12.074;2023-10-09T02:14:43;12.60;99.90
3628;DHT22;1830;49.000;12.074;2023-10-09T02:17:10;12.60;99.90
3628;DHT22;1830;49.000;12.074;2023-10-09T02:19:44;12.60;99.90
3628;DHT22;1830;49.000;12.074;2023-10-09T02:22:14;12.60;99.90
3628;DHT22;1830;49.000;12.074;2023-10-09T02:24:42;12.60;99.90
3628;DHT22;1830;49.000;12.074;2023-10-09T02:27:19;12.60;99.90
3628;DHT22;1830;49.000;12.074;2023-10-09T02:30:19;12.60;99.90
3628;DHT22;1830;49.000;12.074;2023-10-09T02:32:53;12.60;99.90
3628;DHT22;1830;49.000;12.074;2023-10-09T02:35:32;12.60;99.90
3628;DHT22;1830;49.000;12.074;2023-10-09T02:38:04;12.60;99.90
3628;DHT22;1830;49.000;12.074;2023-10-09T02:40:33;12.60;99.90
3628;DHT22;1830;49.000;12.074;2023-10-09T02:43:07;12.60;99.90
3628;DHT22;1830;49.000;12.074;2023-10-09T02:45:40;12.70;99.90
3628;DHT22;1830;49.000;12.074;2023-10-09T02:48:16;12.60;99.90
3628;DHT22;1830;49.000;12.074;2023-10-09T02:50:45;12.60;99.90
3628;DHT22;1830;49.000;12.074;2023-10-09T02:53:12;12.60;99.90
3628;DHT22;1830;49.000;12.074;2023-10-09T02:55:44;12.60;99.90
3628;DHT22;1830;49.000;12.074;2023-10-09T02:58:27;12.60;99.90
3628;DHT22;1830;49.000;12.074;2023-10-09T03:00:56;12.60;99.90
3628;DHT22;1830;49.000;12.074;2023-10-09T03:03:22;12.60;99.90
3628;DHT22;1830;49.000;12.074;2023-10-09T03:05:51;12.60;99.90
3628;DHT22;1830;49.000;12.074;2023-10-09T03:08:18;12.60;99.90
3628;DHT22;1830;49.000;12.074;2023-10-09T03:10:46;12.60;99.90
3628;DHT22;1830;49.000;12.074;2023-10-09T03:13:13;12.60;99.90
3628;DHT22;1830;49.000;12.074;2023-10-09T03:15:46;12.60;99.90
3628;DHT22;1830;49.000;12.074;2023-10-09T03:18:15;12.60;99.90
3628;DHT22;1830;49.000;12.074;2023-10-09T03:20:42;12.70;99.90
3628;DHT22;1830;49.000;12.074;2023-10-09T03:23:10;12.60;99.90
3628;DHT22;1830;49.000;12.074;2023-10-09T03:25:40;12.60;99.90
3628;DHT22;1830;49.000;12.074;2023-10-09T03:28:11;12.60;99.90
3628;DHT22;1830;49.000;12.074;2023-10-09T03:30:38;12.60;99.90
3628;DHT22;1830;49.000;12.074;2023-10-09T03:33:05;12.60;99.90
3628;DHT22;1830;49.000;12.074;2023-10-09T03:35:34;12.50;99.90
3628;DHT22;1830;49.000;12.074;2023-10-09T03:38:01;12.50;99.90
3628;DHT22;1830;49.000;12.074;2023-10-09T03:40:37;12.50;99.90
3628;DHT22;1830;49.000;12.074;2023-10-09T03:43:08;12.40;99.90
3628;DHT22;1830;49.000;12.074;2023-10-09T03:45:35;12.50;99.90
3628;DHT22;1830;49.000;12.074;2023-10-09T03:48:04;12.40;99.90
3628;DHT22;1830;49.000;12.074;2023-10-09T03:50:38;12.50;99.90
3628;DHT22;1830;49.000;12.074;2023-10-09T03:53:08;12.50;99.90
3628;DHT22;1830;49.000;12.074;2023-10-09T03:55:38;12.40;99.90
3628;DHT22;1830;49.000;12.074;2023-10-09T03:58:06;12.40;99.90
3628;DHT22;1830;49.000;12.074;2023-10-09T04:00:34;12.50;99.90
3628;DHT22;1830;49.000;12.074;2023-10-09T04:03:10;12.50;99.90
3628;DHT22;1830;49.000;12.074;2023-10-09T04:05:41;12.40;99.90
3628;DHT22;1830;49.000;12.074;2023-10-09T04:08:09;12.50;99.90
3628;DHT22;1830;49.000;12.074;2023-10-09T04:10:41;12.40;99.90
3628;DHT22;1830;49.000;12.074;2023-10-09T04:13:18;12.40;99.90
3628;DHT22;1830;49.000;12.074;2023-10-09T04:15:49;12.40;99.90
3628;DHT22;1830;49.000;12.074;2023-10-09T04:18:18;12.40;99.90
3628;DHT22;1830;49.000;12.074;2023-10-09T04:20:55;12.40;99.90
3628;DHT22;1830;49.000;12.074;2023-10-09T04:23:44;12.40;99.90
3628;DHT22;1830;49.000;12.074;2023-10-09T04:26:35;12.40;99.90
3628;DHT22;1830;49.000;12.074;2023-10-09T04:29:03;12.40;99.90
3628;DHT22;1830;49.000;12.074;2023-10-09T04:31:30;12.40;99.90
3628;DHT22;1830;49.000;12.074;2023-10-09T04:34:03;12.40;99.90
3628;DHT22;1830;49.000;12.074;2023-10-09T04:36:50;12.30;99.90
3628;DHT22;1830;49.000;12.074;2023-10-09T04:39:22;12.50;99.90
3628;DHT22;1830;49.000;12.074;2023-10-09T04:42:12;12.40;99.90
3628;DHT22;1830;49.000;12.074;2023-10-09T04:44:57;12.40;99.90
3628;DHT22;1830;49.000;12.074;2023-10-09T04:47:45;12.40;99.90
3628;DHT22;1830;49.000;12.074;2023-10-09T04:50:24;12.30;99.90
3628;DHT22;1830;49.000;12.074;2023-10-09T04:53:09;12.20;99.90
3628;DHT22;1830;49.000;12.074;2023-10-09T04:55:54;12.20;99.90
3628;DHT22;1830;49.000;12.074;2023-10-09T04:58:20;12.30;99.90
3628;DHT22;1830;49.000;12.074;2023-10-09T05:00:51;12.20;99.90
3628;DHT22;1830;49.000;12.074;2023-10-09T05:03:30;12.20;99.90
3628;DHT22;1830;49.000;12.074;2023-10-09T05:06:09;12.20;99.90
3628;DHT22;1830;49.000;12.074;2023-10-09T05:09:09;12.20;99.90
3628;DHT22;1830;49.000;12.074;2023-10-09T05:11:38;12.20;99.90
3628;DHT22;1830;49.000;12.074;2023-10-09T05:14:35;12.20;99.90
3628;DHT22;1830;49.000;12.074;2023-10-09T05:17:13;12.20;99.90
3628;DHT22;1830;49.000;12.074;2023-10-09T05:19:43;12.20;99.90
3628;DHT22;1830;49.000;12.074;2023-10-09T05:22:20;12.20;99.90
3628;DHT22;1830;49.000;12.074;2023-10-09T05:25:03;12.20;99.90
3628;DHT22;1830;49.000;12.074;2023-10-09T05:27:41;12.20;99.90
3628;DHT22;1830;49.000;12.074;2023-10-09T05:30:17;12.10;99.90
3628;DHT22;1830;49.000;12.074;2023-10-09T05:32:53;12.10;99.90
3628;DHT22;1830;49.000;12.074;2023-10-09T05:35:24;12.10;99.90
3628;DHT22;1830;49.000;12.074;2023-10-09T05:38:08;12.10;99.90
3628;DHT22;1830;49.000;12.074;2023-10-09T05:40:51;12.10;99.90
3628;DHT22;1830;49.000;12.074;2023-10-09T05:43:30;12.10;99.90
3628;DHT22;1830;49.000;12.074;2023-10-09T05:46:14;12.20;99.90
3628;DHT22;1830;49.000;12.074;2023-10-09T05:48:41;12.20;99.90
3628;DHT22;1830;49.000;12.074;2023-10-09T05:51:20;12.10;99.90
3628;DHT22;1830;49.000;12.074;2023-10-09T05:54:16;12.10;99.90
3628;DHT22;1830;49.000;12.074;2023-10-09T05:57:07;12.10;99.90
3628;DHT22;1830;49.000;12.074;2023-10-09T05:59:50;12.20;99.90
3628;DHT22;1830;49.000;12.074;2023-10-09T06:02:34;12.10;99.90
3628;DHT22;1830;49.000;12.074;2023-10-09T06:05:19;12.20;99.90
3628;DHT22;1830;49.000;12.074;2023-10-09T06:08:00;12.20;99.90
3628;DHT22;1830;49.000;12.074;2023-10-09T06:10:33;12.20;99.90
3628;DHT22;1830;49.000;12.074;2023-10-09T06:13:09;12.30;99.90
3628;DHT22;1830;49.000;12.074;2023-10-09T06:15:49;12.30;99.90
3628;DHT22;1830;49.000;12.074;2023-10-09T06:18:35;12.30;99.90
3628;DHT22;1830;49.000;12.074;2023-10-09T06:21:01;12.30;99.90
3628;DHT22;1830;49.000;12.074;2023-10-09T06:23:45;12.40;99.90
3628;DHT22;1830;49.000;12.074;2023-10-09T06:26:34;12.40;99.90
3628;DHT22;1830;49.000;12.074;2023-10-09T06:29:03;12.50;99.90
3628;DHT22;1830;49.000;12.074;2023-10-09T06:31:42;12.50;99.90
3628;DHT22;1830;49.000;12.074;2023-10-09T06:34:26;12.60;99.90
3628;DHT22;1830;49.000;12.074;2023-10-09T06:37:01;12.70;99.90
3628;DHT22;1830;49.000;12.074;2023-10-09T06:39:38;12.60;99.90
3628;DHT22;1830;49.000;12.074;2023-10-09T06:42:19;12.60;99.90
3628;DHT22;1830;49.000;12.074;2023-10-09T06:45:11;12.70;99.90
3628;DHT22;1830;49.000;12.074;2023-10-09T06:47:42;12.80;99.90
3628;DHT22;1830;49.000;12.074;2023-10-09T06:50:19;12.90;99.90
3628;DHT22;1830;49.000;12.074;2023-10-09T06:52:51;13.00;99.90
3628;DHT22;1830;49.000;12.074;2023-10-09T06:55:44;13.00;99.90
3628;DHT22;1830;49.000;12.074;2023-10-09T06:58:17;13.00;99.90
3628;DHT22;1830;49.000;12.074;2023-10-09T07:00:52;13.00;99.90
3628;DHT22;1830;49.000;12.074;2023-10-09T07:03:36;13.10;99.90
3628;DHT22;1830;49.000;12.074;2023-10-09T07:06:18;13.20;99.90
3628;DHT22;1830;49.000;12.074;2023-10-09T07:08:50;13.30;99.90
3628;DHT22;1830;49.000;12.074;2023-10-09T07:11:42;13.30;99.90
3628;DHT22;1830;49.000;12.074;2023-10-09T07:14:23;13.40;99.90
3628;DHT22;1830;49.000;12.074;2023-10-09T07:17:14;13.40;99.90
3628;DHT22;1830;49.000;12.074;2023-10-09T07:19:49;13.40;99.90
3628;DHT22;1830;49.000;12.074;2023-10-09T07:22:34;13.50;99.90
3628;DHT22;1830;49.000;12.074;2023-10-09T07:25:06;13.60;99.90
3628;DHT22;1830;49.000;12.074;2023-10-09T07:27:53;13.60;99.90
3628;DHT22;1830;49.000;12.074;2023-10-09T07:30:21;13.70;99.90
3628;DHT22;1830;49.000;12.074;2023-10-09T07:33:05;13.70;99.90
3628;DHT22;1830;49.000;12.074;2023-10-09T07:35:43;13.80;99.90
3628;DHT22;1830;49.000;12.074;2023-10-09T07:38:24;13.90;99.90
3628;DHT22;1830;49.000;12.074;2023-10-09T07:40:55;13.90;99.90
3628;DHT22;1830;49.000;12.074;2023-10-09T07:43:26;13.90;99.90
3628;DHT22;1830;49.000;12.074;2023-10-09T07:45:55;14.00;99.90
3628;DHT22;1830;49.000;12.074;2023-10-09T07:48:37;14.00;99.90
3628;DHT22;1830;49.000;12.074;2023-10-09T07:51:14;14.10;99.90
3628;DHT22;1830;49.000;12.074;2023-10-09T07:53:40;14.10;99.90
3628;DHT22;1830;49.000;12.074;2023-10-09T07:56:10;14.20;99.90
3628;DHT22;1830;49.000;12.074;2023-10-09T07:58:39;14.20;99.90
3628;DHT22;1830;49.000;12.074;2023-10-09T08:01:13;14.30;99.90
3628;DHT22;1830;49.000;12.074;2023-10-09T08:03:43;14.30;99.90
3628;DHT22;1830;49.000;12.074;2023-10-09T08:06:12;14.30;99.90
3628;DHT22;1830;49.000;12.074;2023-10-09T08:08:56;14.40;99.90
3628;DHT22;1830;49.000;12.074;2023-10-09T08:11:41;14.40;99.90
3628;DHT22;1830;49.000;12.074;2023-10-09T08:14:25;14.40;99.90
3628;DHT22;1830;49.000;12.074;2023-10-09T08:17:06;14.50;99.90
3628;DHT22;1830;49.000;12.074;2023-10-09T08:19:45;14.50;99.90
3628;DHT22;1830;49.000;12.074;2023-10-09T08:22:24;14.60;99.90
3628;DHT22;1830;49.000;12.074;2023-10-09T08:25:15;14.60;99.90
3628;DHT22;1830;49.000;12.074;2023-10-09T08:27:56;14.60;99.90
3628;DHT22;1830;49.000;12.074;2023-10-09T08:30:24;14.70;99.90
3628;DHT22;1830;49.000;12.074;2023-10-09T08:33:15;14.80;99.90
3628;DHT22;1830;49.000;12.074;2023-10-09T08:36:01;14.90;99.90
3628;DHT22;1830;49.000;12.074;2023-10-09T08:38:31;14.90;99.90
3628;DHT22;1830;49.000;12.074;2023-10-09T08:41:07;15.00;99.90
3628;DHT22;1830;49.000;12.074;2023-10-09T08:43:47;15.00;99.90
3628;DHT22;1830;49.000;12.074;2023-10-09T08:46:17;15.10;99.90
3628;DHT22;1830;49.000;12.074;2023-10-09T08:48:45;15.10;99.90
3628;DHT22;1830;49.000;12.074;2023-10-09T08:51:14;15.10;99.90
3628;DHT22;1830;49.000;12.074;2023-10-09T08:53:43;15.20;99.90
3628;DHT22;1830;49.000;12.074;2023-10-09T08:56:12;15.30;99.90
3628;DHT22;1830;49.000;12.074;2023-10-09T08:58:41;15.40;99.90
3628;DHT22;1830;49.000;12.074;2023-10-09T09:01:08;15.40;99.90
3628;DHT22;1830;49.000;12.074;2023-10-09T09:03:41;15.40;99.90
3628;DHT22;1830;49.000;12.074;2023-10-09T09:06:10;15.50;99.90
3628;DHT22;1830;49.000;12.074;2023-10-09T09:08:38;15.50;99.90
3628;DHT22;1830;49.000;12.074;2023-10-09T09:11:09;15.50;99.90
3628;DHT22;1830;49.000;12.074;2023-10-09T09:13:40;15.60;99.90
3628;DHT22;1830;49.000;12.074;2023-10-09T09:16:18;15.60;99.90
3628;DHT22;1830;49.000;12.074;2023-10-09T09:18:54;15.70;99.90
3628;DHT22;1830;49.000;12.074;2023-10-09T09:21:26;15.80;99.90
3628;DHT22;1830;49.000;12.074;2023-10-09T09:23:56;15.80;99.90
3628;DHT22;1830;49.000;12.074;2023-10-09T09:26:35;15.90;99.90
3628;DHT22;1830;49.000;12.074;2023-10-09T09:29:04;16.00;99.90
3628;DHT22;1830;49.000;12.074;2023-10-09T09:31:32;16.00;99.90
3628;DHT22;1830;49.000;12.074;2023-10-09T09:34:04;16.10;99.90
3628;DHT22;1830;49.000;12.074;2023-10-09T09:36:48;16.10;99.90
3628;DHT22;1830;49.000;12.074;2023-10-09T09:39:21;16.20;99.90
3628;DHT22;1830;49.000;12.074;2023-10-09T09:41:54;16.20;99.90
3628;DHT22;1830;49.000;12.074;2023-10-09T09:44:23;16.20;99.90
3628;DHT22;1830;49.000;12.074;2023-10-09T09:46:56;16.30;99.90
3628;DHT22;1830;49.000;12.074;2023-10-09T09:49:27;16.30;99.90
3628;DHT22;1830;49.000;12.074;2023-10-09T09:51:58;16.30;99.90
3628;DHT22;1830;49.000;12.074;2023-10-09T09:54:26;16.30;99.90
3628;DHT22;1830;49.000;12.074;2023-10-09T09:56:59;16.40;99.90
3628;DHT22;1830;49.000;12.074;2023-10-09T09:59:37;16.40;99.90
3628;DHT22;1830;49.000;12.074;2023-10-09T10:02:18;16.50;99.90
3628;DHT22;1830;49.000;12.074;2023-10-09T10:04:47;16.50;99.90
3628;DHT22;1830;49.000;12.074;2023-10-09T10:07:18;16.60;99.90
3628;DHT22;1830;49.000;12.074;2023-10-09T10:09:48;16.60;99.90
3628;DHT22;1830;49.000;12.074;2023-10-09T10:12:49;16.60;99.90
3628;DHT22;1830;49.000;12.074;2023-10-09T10:18:58;16.80;99.90
3628;DHT22;1830;49.000;12.074;2023-10-09T10:21:47;16.80;99.90
3628;DHT22;1830;49.000;12.074;2023-10-09T10:24:42;16.80;99.90
3628;DHT22;1830;49.000;12.074;2023-10-09T10:27:21;16.80;99.90
3628;DHT22;1830;49.000;12.074;2023-10-09T10:30:27;16.80;99.90
3628;DHT22;1830;49.000;12.074;2023-10-09T10:32:59;16.80;99.90
3628;DHT22;1830;49.000;12.074;2023-10-09T10:35:35;16.70;99.90
3628;DHT22;1830;49.000;12.074;2023-10-09T10:38:28;16.70;99.90
3628;DHT22;1830;49.000;12.074;2023-10-09T10:41:16;16.70;99.90
3628;DHT22;1830;49.000;12.074;2023-10-09T10:43:45;16.60;99.90
3628;DHT22;1830;49.000;12.074;2023-10-09T10:46:24;16.60;99.90
3628;DHT22;1830;49.000;12.074;2023-10-09T10:49:05;16.60;99.90
3628;DHT22;1830;49.000;12.074;2023-10-09T10:51:41;16.60;99.90
3628;DHT22;1830;49.000;12.074;2023-10-09T10:54:20;16.60;99.90
3628;DHT22;1830;49.000;12.074;2023-10-09T10:57:14;16.60;99.90
3628;DHT22;1830;49.000;12.074;2023-10-09T10:59:46;16.60;99.90
3628;DHT22;1830;49.000;12.074;2023-10-09T11:02:16;16.60;99.90
3628;DHT22;1830;49.000;12.074;2023-10-09T11:04:48;16.60;99.90
3628;DHT22;1830;49.000;12.074;2023-10-09T11:07:21;16.50;99.90
3628;DHT22;1830;49.000;12.074;2023-10-09T11:09:53;16.40;99.90
3628;DHT22;1830;49.000;12.074;2023-10-09T11:12:44;16.50;99.90
3628;DHT22;1830;49.000;12.074;2023-10-09T11:15:34;16.50;99.90
3628;DHT22;1830;49.000;12.074;2023-10-09T11:18:11;16.40;99.90
3628;DHT22;1830;49.000;12.074;2023-10-09T11:20:48;16.40;99.90
3628;DHT22;1830;49.000;12.074;2023-10-09T11:23:22;16.40;99.90
3628;DHT22;1830;49.000;12.074;2023-10-09T11:25:55;16.50;99.90
3628;DHT22;1830;49.000;12.074;2023-10-09T11:28:42;16.50;99.90
3628;DHT22;1830;49.000;12.074;2023-10-09T11:31:16;16.50;99.90
3628;DHT22;1830;49.000;12.074;2023-10-09T11:33:45;16.50;99.90
3628;DHT22;1830;49.000;12.074;2023-10-09T11:36:14;16.50;99.90
3628;DHT22;1830;49.000;12.074;2023-10-09T11:38:40;16.50;99.90
3628;DHT22;1830;49.000;12.074;2023-10-09T11:41:14;16.60;99.90
3628;DHT22;1830;49.000;12.074;2023-10-09T11:43:51;16.60;99.90
3628;DHT22;1830;49.000;12.074;2023-10-09T11:46:18;16.60;99.90
3628;DHT22;1830;49.000;12.074;2023-10-09T11:49:14;16.60;99.90
3628;DHT22;1830;49.000;12.074;2023-10-09T11:52:05;16.60;99.90
3628;DHT22;1830;49.000;12.074;2023-10-09T11:54:49;16.60;99.90
3628;DHT22;1830;49.000;12.074;2023-10-09T11:57:16;16.60;99.90
3628;DHT22;1830;49.000;12.074;2023-10-09T11:59:43;16.50;99.90
3628;DHT22;1830;49.000;12.074;2023-10-09T12:02:11;16.50;99.90
3628;DHT22;1830;49.000;12.074;2023-10-09T12:04:39;16.50;99.90
3628;DHT22;1830;49.000;12.074;2023-10-09T12:07:07;16.50;99.90
3628;DHT22;1830;49.000;12.074;2023-10-09T12:09:35;16.40;99.90
3628;DHT22;1830;49.000;12.074;2023-10-09T12:12:03;16.40;99.90
3628;DHT22;1830;49.000;12.074;2023-10-09T12:14:30;16.50;99.90
3628;DHT22;1830;49.000;12.074;2023-10-09T12:16:59;16.50;99.90
3628;DHT22;1830;49.000;12.074;2023-10-09T12:19:32;16.50;99.90
3628;DHT22;1830;49.000;12.074;2023-10-09T12:21:59;16.50;99.90
3628;DHT22;1830;49.000;12.074;2023-10-09T12:24:27;16.50;99.90
3628;DHT22;1830;49.000;12.074;2023-10-09T12:26:55;16.50;99.90
3628;DHT22;1830;49.000;12.074;2023-10-09T12:29:23;16.60;99.90
3628;DHT22;1830;49.000;12.074;2023-10-09T12:31:50;16.50;99.90
3628;DHT22;1830;49.000;12.074;2023-10-09T12:34:24;16.60;99.90
3628;DHT22;1830;49.000;12.074;2023-10-09T12:36:53;16.60;99.90
3628;DHT22;1830;49.000;12.074;2023-10-09T12:39:21;16.60;99.90
3628;DHT22;1830;49.000;12.074;2023-10-09T12:41:48;16.60;99.90
3628;DHT22;1830;49.000;12.074;2023-10-09T12:44:19;16.60;99.90
3628;DHT22;1830;49.000;12.074;2023-10-09T12:46:46;16.70;99.90
3628;DHT22;1830;49.000;12.074;2023-10-09T12:49:18;16.70;99.90
3628;DHT22;1830;49.000;12.074;2023-10-09T12:51:50;16.70;99.90
3628;DHT22;1830;49.000;12.074;2023-10-09T12:54:19;16.70;99.90
3628;DHT22;1830;49.000;12.074;2023-10-09T12:56:52;16.70;99.90
3628;DHT22;1830;49.000;12.074;2023-10-09T12:59:19;16.60;99.90
3628;DHT22;1830;49.000;12.074;2023-10-09T13:01:47;16.70;99.90
3628;DHT22;1830;49.000;12.074;2023-10-09T13:04:18;16.60;99.90
3628;DHT22;1830;49.000;12.074;2023-10-09T13:06:48;16.60;99.90
3628;DHT22;1830;49.000;12.074;2023-10-09T13:09:19;16.70;99.90
3628;DHT22;1830;49.000;12.074;2023-10-09T13:11:50;16.60;99.90
3628;DHT22;1830;49.000;12.074;2023-10-09T13:14:17;16.60;99.90
3628;DHT22;1830;49.000;12.074;2023-10-09T13:16:47;16.60;99.90
3628;DHT22;1830;49.000;12.074;2023-10-09T13:19:16;16.60;99.90
3628;DHT22;1830;49.000;12.074;2023-10-09T13:21:43;16.60;99.90
3628;DHT22;1830;49.000;12.074;2023-10-09T13:24:10;16.60;99.90
3628;DHT22;1830;49.000;12.074;2023-10-09T13:26:43;16.60;99.90
3628;DHT22;1830;49.000;12.074;2023-10-09T13:29:12;16.60;99.90
3628;DHT22;1830;49.000;12.074;2023-10-09T13:31:40;16.60;99.90
3628;DHT22;1830;49.000;12.074;2023-10-09T13:34:12;16.60;99.90
3628;DHT22;1830;49.000;12.074;2023-10-09T13:36:41;16.60;99.90
3628;DHT22;1830;49.000;12.074;2023-10-09T13:39:15;16.70;99.90
3628;DHT22;1830;49.000;12.074;2023-10-09T13:41:52;16.70;99.90
3628;DHT22;1830;49.000;12.074;2023-10-09T13:44:24;16.70;99.90
3628;DHT22;1830;49.000;12.074;2023-10-09T13:46:53;16.80;99.90
3628;DHT22;1830;49.000;12.074;2023-10-09T13:49:20;16.80;99.90
3628;DHT22;1830;49.000;12.074;2023-10-09T13:51:48;16.80;99.90
3628;DHT22;1830;49.000;12.074;2023-10-09T13:54:16;16.80;99.90
3628;DHT22;1830;49.000;12.074;2023-10-09T13:56:47;16.90;99.90
3628;DHT22;1830;49.000;12.074;2023-10-09T13:59:20;16.90;99.90
3628;DHT22;1830;49.000;12.074;2023-10-09T14:01:48;16.90;99.90
3628;DHT22;1830;49.000;12.074;2023-10-09T14:04:15;16.90;99.90
3628;DHT22;1830;49.000;12.074;2023-10-09T14:06:44;16.90;99.90
3628;DHT22;1830;49.000;12.074;2023-10-09T14:09:13;17.00;99.90
3628;DHT22;1830;49.000;12.074;2023-10-09T14:11:55;16.90;99.90
3628;DHT22;1830;49.000;12.074;2023-10-09T14:14:34;16.90;99.90
3628;DHT22;1830;49.000;12.074;2023-10-09T14:17:04;17.00;99.90
3628;DHT22;1830;49.000;12.074;2023-10-09T14:19:38;17.10;99.90
3628;DHT22;1830;49.000;12.074;2023-10-09T14:22:05;17.10;99.90
3628;DHT22;1830;49.000;12.074;2023-10-09T14:24:33;17.20;99.90
3628;DHT22;1830;49.000;12.074;2023-10-09T14:27:00;17.20;99.90
3628;DHT22;1830;49.000;12.074;2023-10-09T14:29:30;17.20;99.90
3628;DHT22;1830;49.000;12.074;2023-10-09T14:31:59;17.20;99.90
3628;DHT22;1830;49.000;12.074;2023-10-09T14:34:28;17.30;99.90
3628;DHT22;1830;49.000;12.074;2023-10-09T14:36:59;17.20;99.90
3628;DHT22;1830;49.000;12.074;2023-10-09T14:39:27;17.30;99.90
3628;DHT22;1830;49.000;12.074;2023-10-09T14:41:55;17.30;99.90
3628;DHT22;1830;49.000;12.074;2023-10-09T14:44:23;17.40;99.90
3628;DHT22;1830;49.000;12.074;2023-10-09T14:46:53;17.40;99.90
3628;DHT22;1830;49.000;12.074;2023-10-09T14:49:22;17.40;99.90
3628;DHT22;1830;49.000;12.074;2023-10-09T14:51:49;17.40;99.90
3628;DHT22;1830;49.000;12.074;2023-10-09T14:54:17;17.40;99.90
3628;DHT22;1830;49.000;12.074;2023-10-09T14:56:44;17.50;99.90
3628;DHT22;1830;49.000;12.074;2023-10-09T14:59:12;17.40;99.90
3628;DHT22;1830;49.000;12.074;2023-10-09T15:01:39;17.50;99.90
3628;DHT22;1830;49.000;12.074;2023-10-09T15:04:06;17.50;99.90
3628;DHT22;1830;49.000;12.074;2023-10-09T15:06:37;17.50;99.90
3628;DHT22;1830;49.000;12.074;2023-10-09T15:09:04;17.50;99.90
3628;DHT22;1830;49.000;12.074;2023-10-09T15:11:35;17.50;99.90
3628;DHT22;1830;49.000;12.074;2023-10-09T15:14:04;17.60;99.90
3628;DHT22;1830;49.000;12.074;2023-10-09T15:16:32;17.60;99.90
3628;DHT22;1830;49.000;12.074;2023-10-09T15:18:59;17.60;99.90
3628;DHT22;1830;49.000;12.074;2023-10-09T15:21:28;17.60;99.90
3628;DHT22;1830;49.000;12.074;2023-10-09T15:23:59;17.60;99.90
3628;DHT22;1830;49.000;12.074;2023-10-09T15:26:26;17.60;99.90
3628;DHT22;1830;49.000;12.074;2023-10-09T15:29:01;17.60;99.90
3628;DHT22;1830;49.000;12.074;2023-10-09T15:31:30;17.70;99.90
3628;DHT22;1830;49.000;12.074;2023-10-09T15:33:58;17.80;99.90
3628;DHT22;1830;49.000;12.074;2023-10-09T15:36:25;17.70;99.90
3628;DHT22;1830;49.000;12.074;2023-10-09T15:38:54;17.70;99.90
3628;DHT22;1830;49.000;12.074;2023-10-09T15:41:27;17.70;99.90
3628;DHT22;1830;49.000;12.074;2023-10-09T15:43:57;17.80;99.90
3628;DHT22;1830;49.000;12.074;2023-10-09T15:53:39;17.70;99.90
3628;DHT22;1830;49.000;12.074;2023-10-09T15:56:07;17.60;99.90
3628;DHT22;1830;49.000;12.074;2023-10-09T15:58:41;17.60;99.90
3628;DHT22;1830;49.000;12.074;2023-10-09T16:01:19;17.60;99.90
3628;DHT22;1830;49.000;12.074;2023-10-09T16:03:48;17.60;99.90
3628;DHT22;1830;49.000;12.074;2023-10-09T16:06:15;17.60;99.90
3628;DHT22;1830;49.000;12.074;2023-10-09T16:08:43;17.60;99.90
3628;DHT22;1830;49.000;12.074;2023-10-09T16:11:11;17.60;99.90
3628;DHT22;1830;49.000;12.074;2023-10-09T16:13:42;17.50;99.90
3628;DHT22;1830;49.000;12.074;2023-10-09T16:16:16;17.50;99.90
3628;DHT22;1830;49.000;12.074;2023-10-09T16:18:53;17.40;99.90
3628;DHT22;1830;49.000;12.074;2023-10-09T16:21:41;17.50;99.90
3628;DHT22;1830;49.000;12.074;2023-10-09T16:24:08;17.60;99.90
3628;DHT22;1830;49.000;12.074;2023-10-09T16:26:36;17.50;99.90
3628;DHT22;1830;49.000;12.074;2023-10-09T16:29:09;17.50;99.90
3628;DHT22;1830;49.000;12.074;2023-10-09T16:31:37;17.40;99.90
3628;DHT22;1830;49.000;12.074;2023-10-09T16:34:04;17.40;99.90
3628;DHT22;1830;49.000;12.074;2023-10-09T16:36:32;17.30;99.90